Strona główna
METAR-TAF:

METAR-TAF

Lotnisko :

Port lotniczy Bruksela

Bruksela, Belgia

Szerokość geograficzna: 50-54N, Długość geograficzna: 004-32E, wysokość: 55 m

Aktualna obserwacja pogody

Raport powstał 19 minut temu, godzina 12:20 UTC
Wiatr 6 kt od południowo-południowy zachód
Temperatura 21°C
Wilgotność 60%
Ciśnienie 1023 hPa
Widzialność 10 km lub więcej
Rozproszone chmury na wysokości 3600 ft
Przerywane chmury na wysokości 4200 ft

METAR: EBBR 181220Z 20006KT 9999 SCT036 BKN042 21/13 Q1023 NOSIG

czas: 14:39 (12:39 UTC)

Prognoza

Raport powstał 1 godzina i 39 minut temu, godzina 11:00 UTC
Prognoza ważna od 18 godzina 12 UTC do 19 godzina 18 UTC
Wiatr 6 kt od południowy zachód
Widzialność 10 km lub więcej
Mało chmury na wysokości 2000 ft
Rozproszone chmury na wysokości 3500 ft

TAF: EBBR 181100Z 1812/1918 22006KT 9999 FEW020 SCT035

Obserwacja i prognoza pogody dla ponad 4000 lotnisk (raport METAR i TAF).

Dostępne stacje oznaczono żółtymi i czerwonymi punktami na mapie.

Najedź kursorem aby zobaczyć nazwę stacji.

Kliknij aby zobaczyć obserwacje i prognozy pogody.

Aby zmienić mapę: kliknij na zielony przycisk z czarnym krzyżykiem, aby powiększyć; na zielony przycisk z myślnikiem, aby pomniejszyć; na zielone strzałki, aby przejść do map sąsiednich.


METAR-TAF: